Harris, New York
Current Conditions -  °F | °C
As of 7:35 AM on Sunday 21 Dec 2014 (Local Time) from KMSV Reporting Station
Overcast Overcast  
Wind Chill: -3°   Ceiling: 400
Heat Index: -3°   Visibility: 2mi
Dew Point: -4°   Wind: 3mph
Humidity: 93%   Direction: 300°WNW
Pressure: 30.24"   Gusts: NA
Location:  41.71°N, 74.73°W
Report Text: KMSV 211235Z AUTO 30003KT 2SM BKN004 OVC009 M03/M04 A3024 RMK AO1
Loading
Personal Weather Stations






























Interactive Weather Map New forecast layout! Learn more

10-Day Weather Forecast

Advertisements
Track Severe Weather on mobile